Time;durP1;ratioP1;P1;durP2;ratioP2;P2;SDS_P1;SDS_P2;PMS_P1;PMS_P2;Temp;Humidity;BMP_temperature;BMP_pressure;BME280_temperature;BME280_humidity;BME280_pressure;Samples;Min_cycle;Max_cycle;Signal;HPM_P1;HPM_P2
2022/06/25 00:01:56;;;;;;;;;;;23.40;99.90;;;;;;5022589;28;19972;-77
2022/06/25 00:07:05;;;;;;;;;;;23.40;99.90;;;;;;5033354;28;19928;-77
2022/06/25 00:09:31;;;;;;;;;;;23.40;99.90;;;;;;5029974;28;19916;-76
2022/06/25 00:14:44;;;;;;;;;;;23.30;99.90;;;;;;5028980;28;19996;-76
2022/06/25 00:17:10;;;;;;;;;;;23.30;99.90;;;;;;5033364;28;19913;-77
2022/06/25 00:19:35;;;;;;;;;;;23.30;99.90;;;;;;5033055;28;19913;-77
2022/06/25 00:22:01;;;;;;;;;;;23.30;99.90;;;;;;5033259;28;19909;-77
2022/06/25 00:24:27;;;;;;;;;;;23.20;99.90;;;;;;5032188;28;19920;-76
2022/06/25 00:26:52;;;;;;;;;;;23.20;99.90;;;;;;5032748;28;19957;-76
2022/06/25 00:29:18;;;;;;;;;;;23.20;99.90;;;;;;5032819;28;19921;-77
2022/06/25 00:31:43;;;;;;;;;;;23.10;99.90;;;;;;5032831;28;19920;-77
2022/06/25 00:34:09;;;;;;;;;;;23.10;99.90;;;;;;5032729;28;19952;-77
2022/06/25 00:36:35;;;;;;;;;;;23.10;99.90;;;;;;5030445;28;19913;-77
2022/06/25 00:39:00;;;;;;;;;;;23.00;99.90;;;;;;5032027;28;19913;-77
2022/06/25 00:41:26;;;;;;;;;;;23.00;99.90;;;;;;5032288;28;19967;-77
2022/06/25 00:43:51;;;;;;;;;;;23.00;99.90;;;;;;5032460;28;20421;-77
2022/06/25 00:46:17;;;;;;;;;;;22.90;99.90;;;;;;5031331;28;19913;-77
2022/06/25 00:48:43;;;;;;;;;;;22.90;99.90;;;;;;5033252;28;19913;-76
2022/06/25 00:51:13;;;;;;;;;;;22.90;99.90;;;;;;5029718;28;19995;-76
2022/06/25 00:53:43;;;;;;;;;;;22.90;99.90;;;;;;5032258;28;19913;-77
2022/06/25 00:56:10;;;;;;;;;;;22.90;99.90;;;;;;5032166;28;20271;-77
2022/06/25 00:58:38;;;;;;;;;;;22.90;99.90;;;;;;5032305;28;19925;-77
2022/06/25 01:01:04;;;;;;;;;;;22.90;99.90;;;;;;5032037;28;19925;-77
2022/06/25 01:03:30;;;;;;;;;;;22.80;99.90;;;;;;5031897;28;20378;-76
2022/06/25 01:05:56;;;;;;;;;;;22.80;99.90;;;;;;5031810;28;19947;-76
2022/06/25 01:10:56;;;;;;;;;;;22.80;99.90;;;;;;5030617;28;19932;-74
2022/06/25 01:13:22;;;;;;;;;;;22.70;99.90;;;;;;5278983;22;20353;-74
2022/06/25 01:15:49;;;;;;;;;;;22.70;99.90;;;;;;5017635;28;20361;-75
2022/06/25 01:18:14;;;;;;;;;;;22.70;99.90;;;;;;5019862;28;19913;-75
2022/06/25 01:20:42;;;;;;;;;;;22.70;99.90;;;;;;5019853;28;19910;-74
2022/06/25 01:23:08;;;;;;;;;;;22.60;99.90;;;;;;5019760;28;19928;-75
2022/06/25 01:25:35;;;;;;;;;;;22.70;99.90;;;;;;5017871;28;19917;-75
2022/06/25 01:28:01;;;;;;;;;;;22.60;99.90;;;;;;5289440;23;19924;-74
2022/06/25 01:30:26;;;;;;;;;;;22.60;99.90;;;;;;5052960;28;19931;-74
2022/06/25 01:32:52;;;;;;;;;;;22.60;99.90;;;;;;5052685;28;19912;-74
2022/06/25 01:35:18;;;;;;;;;;;22.60;99.90;;;;;;5052803;28;19959;-74
2022/06/25 01:37:44;;;;;;;;;;;22.60;99.90;;;;;;5053036;28;19917;-74
2022/06/25 01:45:41;;;;;;;;;;;22.50;99.90;;;;;;5032244;28;19916;-73
2022/06/25 01:48:07;;;;;;;;;;;22.50;99.90;;;;;;5031771;28;19966;-73
2022/06/25 01:50:33;;;;;;;;;;;22.50;99.90;;;;;;5031684;28;19921;-73
2022/06/25 01:52:59;;;;;;;;;;;22.40;99.90;;;;;;5028248;28;19921;-73
2022/06/25 01:55:24;;;;;;;;;;;22.40;99.90;;;;;;5017462;28;19922;-73
2022/06/25 01:57:50;;;;;;;;;;;22.40;99.90;;;;;;5031896;28;20374;-73
2022/06/25 02:00:18;;;;;;;;;;;22.40;99.90;;;;;;5030398;28;19920;-73
2022/06/25 02:02:44;;;;;;;;;;;22.40;99.90;;;;;;5031121;28;20000;-73
2022/06/25 02:05:11;;;;;;;;;;;22.30;99.90;;;;;;5031664;28;19964;-73
2022/06/25 02:07:37;;;;;;;;;;;22.30;99.90;;;;;;5031085;28;19913;-73
2022/06/25 02:10:02;;;;;;;;;;;22.30;99.90;;;;;;5016006;28;19925;-73
2022/06/25 02:12:29;;;;;;;;;;;22.30;99.90;;;;;;5032207;28;20439;-73
2022/06/25 02:14:54;;;;;;;;;;;22.20;99.90;;;;;;5031343;28;20289;-73
2022/06/25 02:17:20;;;;;;;;;;;22.20;99.90;;;;;;5031353;28;19913;-73
2022/06/25 02:19:46;;;;;;;;;;;22.20;99.90;;;;;;5031435;28;19913;-73
2022/06/25 02:22:14;;;;;;;;;;;22.20;99.90;;;;;;5029667;28;19921;-73
2022/06/25 02:24:41;;;;;;;;;;;22.10;99.90;;;;;;5032148;28;19909;-73
2022/06/25 02:27:07;;;;;;;;;;;22.10;99.90;;;;;;5031232;28;19917;-73
2022/06/25 02:29:33;;;;;;;;;;;22.10;99.90;;;;;;5027178;28;19921;-73
2022/06/25 02:31:59;;;;;;;;;;;22.10;99.90;;;;;;5031230;28;20313;-73
2022/06/25 02:34:24;;;;;;;;;;;22.10;99.90;;;;;;5031196;28;19914;-72
2022/06/25 02:36:50;;;;;;;;;;;22.10;99.90;;;;;;5031214;28;20378;-73
2022/06/25 02:39:17;;;;;;;;;;;22.10;99.90;;;;;;5031993;28;19909;-73
2022/06/25 02:41:43;;;;;;;;;;;22.00;99.90;;;;;;5030519;28;20012;-73
2022/06/25 02:44:08;;;;;;;;;;;22.00;99.90;;;;;;5029922;28;20004;-72
2022/06/25 02:46:34;;;;;;;;;;;22.00;99.90;;;;;;5031391;28;19947;-72
2022/06/25 02:48:59;;;;;;;;;;;22.00;99.90;;;;;;5015414;28;19921;-73
2022/06/25 02:51:25;;;;;;;;;;;22.00;99.90;;;;;;5016883;28;20374;-73
2022/06/25 02:53:51;;;;;;;;;;;22.00;99.90;;;;;;5032462;28;19913;-73
2022/06/25 02:59:02;;;;;;;;;;;22.00;99.90;;;;;;5025894;28;19932;-73
2022/06/25 03:01:28;;;;;;;;;;;22.00;99.90;;;;;;5033487;28;19916;-73
2022/06/25 03:03:55;;;;;;;;;;;21.90;99.90;;;;;;5018820;28;20004;-72
2022/06/25 03:06:20;;;;;;;;;;;21.90;99.90;;;;;;5034898;28;19910;-73
2022/06/25 03:08:47;;;;;;;;;;;21.90;99.90;;;;;;5034544;28;19920;-72
2022/06/25 03:11:12;;;;;;;;;;;21.90;99.90;;;;;;5034179;28;20318;-73
2022/06/25 03:13:38;;;;;;;;;;;21.90;99.90;;;;;;5032105;28;19924;-73
2022/06/25 03:16:04;;;;;;;;;;;21.90;99.90;;;;;;5031933;28;19999;-73
2022/06/25 03:18:29;;;;;;;;;;;21.80;99.90;;;;;;5035274;28;19948;-72
2022/06/25 03:20:55;;;;;;;;;;;21.90;99.90;;;;;;5034241;28;20386;-73
2022/06/25 03:23:21;;;;;;;;;;;21.90;99.90;;;;;;5034103;28;19919;-73
2022/06/25 03:25:47;;;;;;;;;;;21.90;99.90;;;;;;5022838;28;20394;-73
2022/06/25 03:28:12;;;;;;;;;;;21.80;99.90;;;;;;5018998;28;19921;-73
2022/06/25 03:30:38;;;;;;;;;;;21.80;99.90;;;;;;5034980;28;19928;-73
2022/06/25 03:33:03;;;;;;;;;;;21.80;99.90;;;;;;5033767;28;20299;-73
2022/06/25 03:35:29;;;;;;;;;;;21.80;99.90;;;;;;5034095;28;19995;-73
2022/06/25 03:37:55;;;;;;;;;;;21.70;99.90;;;;;;5034210;28;19967;-73
2022/06/25 03:40:20;;;;;;;;;;;21.70;99.90;;;;;;5034398;28;20378;-73
2022/06/25 03:42:46;;;;;;;;;;;21.70;99.90;;;;;;5034509;28;19960;-73
2022/06/25 03:45:11;;;;;;;;;;;21.70;99.90;;;;;;5034545;28;19955;-73
2022/06/25 03:47:37;;;;;;;;;;;21.80;99.90;;;;;;5032131;28;19917;-73
2022/06/25 03:50:03;;;;;;;;;;;21.70;99.90;;;;;;5033776;28;20306;-72
2022/06/25 03:52:28;;;;;;;;;;;21.70;99.90;;;;;;5030775;28;19920;-73
2022/06/25 03:54:54;;;;;;;;;;;21.70;99.90;;;;;;5034095;28;19954;-73
2022/06/25 03:57:20;;;;;;;;;;;21.80;99.90;;;;;;5034186;28;19963;-72
2022/06/25 03:59:45;;;;;;;;;;;21.70;99.90;;;;;;5033673;28;20379;-73
2022/06/25 04:02:11;;;;;;;;;;;21.70;99.90;;;;;;5028716;28;20103;-73
2022/06/25 04:04:36;;;;;;;;;;;21.70;99.90;;;;;;5019299;28;19920;-73
2022/06/25 04:07:02;;;;;;;;;;;21.70;99.90;;;;;;5032276;28;20309;-73
2022/06/25 04:09:27;;;;;;;;;;;21.70;99.90;;;;;;5034354;28;19921;-73
2022/06/25 04:11:53;;;;;;;;;;;21.70;99.90;;;;;;5033737;28;19910;-73
2022/06/25 04:14:19;;;;;;;;;;;21.70;99.90;;;;;;5033661;28;19920;-72
2022/06/25 04:16:44;;;;;;;;;;;21.70;99.90;;;;;;5033363;28;19916;-73
2022/06/25 04:19:10;;;;;;;;;;;21.70;99.90;;;;;;5033362;28;20010;-72
2022/06/25 04:21:35;;;;;;;;;;;21.70;99.90;;;;;;5033987;28;20260;-73
2022/06/25 04:24:01;;;;;;;;;;;21.70;99.90;;;;;;5033301;28;19963;-73
2022/06/25 04:26:26;;;;;;;;;;;21.70;99.90;;;;;;5033361;28;19913;-73
2022/06/25 04:29:04;;;;;;;;;;;21.80;99.90;;;;;;5033198;28;19967;-72
2022/06/25 04:31:33;;;;;;;;;;;21.80;99.90;;;;;;5032761;28;20008;-73
2022/06/25 04:33:59;;;;;;;;;;;21.80;99.90;;;;;;5031589;28;19971;-73
2022/06/25 04:36:25;;;;;;;;;;;21.70;99.90;;;;;;5033502;28;19963;-73
2022/06/25 04:38:50;;;;;;;;;;;21.70;99.90;;;;;;5032967;28;19917;-72
2022/06/25 04:41:18;;;;;;;;;;;21.70;99.90;;;;;;5032888;28;20440;-73
2022/06/25 04:43:44;;;;;;;;;;;21.60;99.90;;;;;;5033058;28;19913;-72
2022/06/25 04:46:09;;;;;;;;;;;21.60;99.90;;;;;;5017442;28;19967;-73
2022/06/25 04:48:35;;;;;;;;;;;21.60;99.90;;;;;;5032270;28;19956;-73
2022/06/25 04:51:00;;;;;;;;;;;21.60;99.90;;;;;;5032332;28;19913;-72
2022/06/25 04:53:26;;;;;;;;;;;21.60;99.90;;;;;;5026604;28;19913;-73
2022/06/25 04:55:52;;;;;;;;;;;21.60;99.90;;;;;;5031492;28;19913;-73
2022/06/25 04:58:18;;;;;;;;;;;21.70;99.90;;;;;;5032761;28;19913;-73
2022/06/25 05:00:43;;;;;;;;;;;21.60;99.90;;;;;;5030413;28;20052;-73
2022/06/25 05:03:09;;;;;;;;;;;21.70;99.90;;;;;;5032178;28;19921;-73
2022/06/25 05:05:35;;;;;;;;;;;21.60;99.90;;;;;;5032444;28;20228;-73
2022/06/25 05:08:00;;;;;;;;;;;21.60;99.90;;;;;;5032499;28;19920;-72
2022/06/25 05:10:26;;;;;;;;;;;21.60;99.90;;;;;;5032320;28;20010;-73
2022/06/25 05:15:36;;;;;;;;;;;21.50;99.90;;;;;;5031796;28;19916;-73
2022/06/25 05:18:01;;;;;;;;;;;21.50;99.90;;;;;;5032294;28;19913;-73
2022/06/25 05:20:27;;;;;;;;;;;21.60;99.90;;;;;;5032240;28;19913;-73
2022/06/25 05:22:52;;;;;;;;;;;21.60;99.90;;;;;;5032061;28;19920;-73
2022/06/25 05:25:18;;;;;;;;;;;21.60;99.90;;;;;;5015723;28;20378;-73
2022/06/25 05:27:44;;;;;;;;;;;21.60;99.90;;;;;;5032681;28;19909;-73
2022/06/25 05:30:10;;;;;;;;;;;21.60;99.90;;;;;;5030240;28;19921;-72
2022/06/25 05:32:35;;;;;;;;;;;21.50;99.90;;;;;;5032556;28;20350;-73
2022/06/25 05:35:02;;;;;;;;;;;21.60;99.90;;;;;;5032196;28;19917;-73
2022/06/25 05:37:27;;;;;;;;;;;21.70;99.90;;;;;;5032059;28;20298;-73
2022/06/25 05:39:53;;;;;;;;;;;21.70;99.90;;;;;;5032262;28;19913;-73
2022/06/25 05:42:20;;;;;;;;;;;21.70;99.90;;;;;;5020916;28;19960;-73
2022/06/25 05:44:46;;;;;;;;;;;21.80;99.90;;;;;;5028231;28;19919;-73
2022/06/25 05:47:11;;;;;;;;;;;21.90;99.90;;;;;;5031804;28;19920;-73
2022/06/25 05:49:37;;;;;;;;;;;21.80;99.90;;;;;;5029878;28;19921;-72
2022/06/25 05:52:02;;;;;;;;;;;21.90;99.90;;;;;;5031777;28;20379;-73
2022/06/25 05:54:28;;;;;;;;;;;21.90;99.90;;;;;;5032612;28;20283;-73
2022/06/25 05:56:54;;;;;;;;;;;22.00;99.90;;;;;;5028793;28;20441;-72
2022/06/25 05:59:19;;;;;;;;;;;22.10;99.90;;;;;;5024576;28;19948;-72
2022/06/25 06:01:45;;;;;;;;;;;22.10;99.90;;;;;;5032160;28;19913;-73
2022/06/25 06:04:10;;;;;;;;;;;22.10;99.90;;;;;;5015708;28;19914;-73
2022/06/25 06:06:36;;;;;;;;;;;22.20;99.90;;;;;;5032307;28;19909;-73
2022/06/25 06:09:02;;;;;;;;;;;22.20;99.90;;;;;;5031819;28;20401;-73
2022/06/25 06:11:27;;;;;;;;;;;22.20;99.90;;;;;;5031485;28;20046;-73
2022/06/25 06:13:53;;;;;;;;;;;22.30;99.90;;;;;;5031384;28;19952;-73
2022/06/25 06:16:18;;;;;;;;;;;22.30;99.90;;;;;;5031279;28;19917;-76
2022/06/25 06:18:44;;;;;;;;;;;22.30;99.90;;;;;;5029081;28;19917;-77
2022/06/25 06:21:10;;;;;;;;;;;22.40;99.90;;;;;;5018406;28;19914;-76
2022/06/25 06:23:35;;;;;;;;;;;22.40;99.90;;;;;;5024423;28;19913;-75
2022/06/25 06:26:01;;;;;;;;;;;22.40;99.90;;;;;;5027495;28;19952;-76
2022/06/25 06:28:26;;;;;;;;;;;22.50;99.90;;;;;;5023987;28;19913;-75
2022/06/25 06:30:52;;;;;;;;;;;22.60;99.90;;;;;;5033428;28;19917;-75
2022/06/25 06:33:18;;;;;;;;;;;22.60;99.90;;;;;;5030868;28;19913;-75
2022/06/25 06:35:43;;;;;;;;;;;22.70;99.90;;;;;;5032148;28;19959;-75
2022/06/25 06:38:09;;;;;;;;;;;22.70;99.90;;;;;;5035257;28;19963;-75
2022/06/25 06:40:34;;;;;;;;;;;22.70;99.90;;;;;;5023127;28;19920;-75
2022/06/25 06:43:00;;;;;;;;;;;22.80;99.90;;;;;;5033765;28;19916;-75
2022/06/25 06:45:26;;;;;;;;;;;22.80;99.90;;;;;;5021335;28;19914;-75
2022/06/25 06:47:52;;;;;;;;;;;22.90;99.90;;;;;;5034986;28;20313;-75
2022/06/25 06:50:18;;;;;;;;;;;22.80;99.90;;;;;;5034258;28;19925;-75
2022/06/25 06:52:43;;;;;;;;;;;22.90;99.90;;;;;;5033568;28;19920;-75
2022/06/25 06:55:09;;;;;;;;;;;22.90;99.90;;;;;;5033364;28;19921;-76
2022/06/25 06:57:35;;;;;;;;;;;23.00;99.90;;;;;;5035274;28;19909;-72
2022/06/25 07:00:06;;;;;;;;;;;23.00;99.90;;;;;;5024449;28;19913;-73
2022/06/25 07:02:31;;;;;;;;;;;23.00;99.90;;;;;;5026848;28;20307;-72
2022/06/25 07:04:57;;;;;;;;;;;23.10;99.90;;;;;;5027044;28;19920;-72
2022/06/25 07:07:23;;;;;;;;;;;23.10;99.90;;;;;;5031029;28;19913;-72
2022/06/25 07:09:48;;;;;;;;;;;23.10;99.90;;;;;;5033394;28;20386;-73
2022/06/25 07:12:14;;;;;;;;;;;23.20;99.90;;;;;;5031073;28;20366;-72
2022/06/25 07:14:39;;;;;;;;;;;23.20;99.90;;;;;;5030340;28;19913;-72
2022/06/25 07:17:05;;;;;;;;;;;23.20;99.90;;;;;;5031643;28;19917;-72
2022/06/25 07:19:31;;;;;;;;;;;23.10;99.90;;;;;;5028559;28;19922;-72
2022/06/25 07:21:57;;;;;;;;;;;23.20;99.90;;;;;;5020053;28;20016;-72
2022/06/25 07:24:23;;;;;;;;;;;23.30;99.90;;;;;;5031489;28;19933;-72
2022/06/25 07:26:48;;;;;;;;;;;23.40;99.90;;;;;;5031635;28;19917;-72
2022/06/25 07:29:14;;;;;;;;;;;23.40;99.90;;;;;;5028268;28;19964;-72
2022/06/25 07:31:40;;;;;;;;;;;23.40;99.90;;;;;;5019009;28;19975;-72
2022/06/25 07:34:05;;;;;;;;;;;23.40;99.90;;;;;;5020823;28;19910;-72
2022/06/25 07:36:31;;;;;;;;;;;23.50;99.90;;;;;;5016893;28;19915;-72
2022/06/25 07:38:57;;;;;;;;;;;23.50;99.90;;;;;;5027663;28;19913;-73
2022/06/25 07:41:23;;;;;;;;;;;23.50;99.90;;;;;;5029437;28;19921;-72
2022/06/25 07:43:49;;;;;;;;;;;23.60;99.90;;;;;;5030695;28;19917;-72
2022/06/25 07:46:14;;;;;;;;;;;23.60;99.90;;;;;;5030200;28;19924;-72
2022/06/25 07:48:40;;;;;;;;;;;23.70;99.90;;;;;;5033992;28;20345;-72
2022/06/25 07:53:50;;;;;;;;;;;23.70;99.90;;;;;;5024440;28;19937;-72
2022/06/25 07:56:16;;;;;;;;;;;23.80;99.90;;;;;;5026129;28;19917;-73
2022/06/25 07:58:41;;;;;;;;;;;23.80;99.90;;;;;;5025556;28;19966;-72
2022/06/25 08:01:07;;;;;;;;;;;23.70;99.90;;;;;;5027167;28;20330;-72
2022/06/25 08:03:33;;;;;;;;;;;23.80;99.90;;;;;;5025585;28;19921;-73
2022/06/25 08:05:58;;;;;;;;;;;24.00;99.90;;;;;;5023676;28;20481;-74
2022/06/25 08:08:27;;;;;;;;;;;23.90;99.90;;;;;;5026151;28;19956;-74
2022/06/25 08:10:52;;;;;;;;;;;24.10;99.90;;;;;;5024368;28;19924;-74
2022/06/25 08:13:18;;;;;;;;;;;24.00;99.90;;;;;;5027504;28;19939;-74
2022/06/25 08:15:44;;;;;;;;;;;24.10;99.90;;;;;;5017660;28;20467;-74
2022/06/25 08:18:09;;;;;;;;;;;24.10;99.90;;;;;;5025923;28;19917;-74
2022/06/25 08:20:35;;;;;;;;;;;24.10;99.90;;;;;;5026961;28;19917;-74
2022/06/25 08:23:00;;;;;;;;;;;24.10;99.90;;;;;;5028783;28;19959;-74
2022/06/25 08:25:26;;;;;;;;;;;24.20;99.90;;;;;;5027642;28;19914;-74
2022/06/25 08:27:53;;;;;;;;;;;24.20;99.90;;;;;;5026461;28;19967;-74
2022/06/25 08:30:20;;;;;;;;;;;24.20;99.90;;;;;;5025983;28;19965;-75
2022/06/25 08:32:45;;;;;;;;;;;24.20;99.90;;;;;;5020555;28;19913;-75
2022/06/25 08:35:11;;;;;;;;;;;24.20;99.90;;;;;;5020399;28;19921;-75
2022/06/25 08:37:43;;;;;;;;;;;24.30;99.90;;;;;;5028452;28;20272;-76
2022/06/25 08:40:09;;;;;;;;;;;24.30;99.90;;;;;;5027541;28;20638;-76
2022/06/25 08:42:35;;;;;;;;;;;24.30;99.90;;;;;;5028185;28;19978;-76
2022/06/25 08:45:01;;;;;;;;;;;24.40;99.90;;;;;;5020260;28;19928;-76
2022/06/25 08:47:26;;;;;;;;;;;24.50;99.90;;;;;;5023230;28;20245;-76
2022/06/25 08:49:53;;;;;;;;;;;24.60;99.90;;;;;;5025363;28;19925;-76
2022/06/25 08:52:19;;;;;;;;;;;24.70;99.90;;;;;;5025746;28;19975;-76
2022/06/25 08:54:47;;;;;;;;;;;24.80;99.90;;;;;;5028845;28;19924;-76
2022/06/25 08:57:13;;;;;;;;;;;24.80;99.90;;;;;;5023465;28;19939;-76
2022/06/25 08:59:39;;;;;;;;;;;24.90;99.90;;;;;;5019664;28;20387;-76
2022/06/25 09:02:05;;;;;;;;;;;25.00;99.90;;;;;;5017468;28;19920;-76
2022/06/25 09:04:31;;;;;;;;;;;25.00;99.90;;;;;;5026211;28;19917;-76
2022/06/25 09:07:17;;;;;;;;;;;25.10;99.90;;;;;;5027892;28;19917;-76
2022/06/25 09:09:52;;;;;;;;;;;25.20;99.90;;;;;;5029507;28;19921;-77
2022/06/25 09:12:18;;;;;;;;;;;25.20;99.90;;;;;;5026913;28;19917;-76
2022/06/25 09:14:44;;;;;;;;;;;25.30;99.90;;;;;;5025066;28;19966;-76
2022/06/25 09:17:14;;;;;;;;;;;25.40;99.90;;;;;;5011416;28;19960;-77
2022/06/25 09:19:41;;;;;;;;;;;25.40;99.90;;;;;;5016917;28;19947;-77
2022/06/25 09:22:08;;;;;;;;;;;25.40;99.90;;;;;;5014549;28;20398;-76
2022/06/25 09:24:43;;;;;;;;;;;25.50;99.90;;;;;;5024894;28;20382;-77
2022/06/25 09:27:08;;;;;;;;;;;25.40;99.90;;;;;;5022968;28;20409;-77
2022/06/25 09:29:37;;;;;;;;;;;25.40;99.90;;;;;;5025771;28;19964;-78
2022/06/25 09:32:03;;;;;;;;;;;25.40;99.90;;;;;;5025745;28;19923;-76
2022/06/25 09:34:35;;;;;;;;;;;25.40;99.90;;;;;;5024641;28;19921;-77
2022/06/25 09:37:17;;;;;;;;;;;25.30;99.90;;;;;;5027718;28;19959;-75
2022/06/25 09:39:44;;;;;;;;;;;25.30;99.90;;;;;;5029367;28;19913;-76
2022/06/25 09:42:20;;;;;;;;;;;25.20;99.90;;;;;;5025605;28;19952;-77
2022/06/25 09:44:45;;;;;;;;;;;25.20;99.90;;;;;;5022180;28;19943;-75
2022/06/25 09:47:13;;;;;;;;;;;25.30;99.90;;;;;;5025356;28;19921;-75
2022/06/25 09:49:39;;;;;;;;;;;25.30;99.90;;;;;;5025147;28;19929;-76
2022/06/25 09:52:05;;;;;;;;;;;25.30;99.90;;;;;;5026256;28;19924;-75
2022/06/25 09:54:31;;;;;;;;;;;25.40;99.90;;;;;;5027584;28;19917;-73
2022/06/25 09:56:58;;;;;;;;;;;25.40;99.90;;;;;;5025882;28;19919;-73
2022/06/25 09:59:24;;;;;;;;;;;25.60;99.90;;;;;;5025455;28;19978;-73
2022/06/25 10:01:50;;;;;;;;;;;25.50;99.90;;;;;;5024983;28;19913;-73
2022/06/25 10:04:16;;;;;;;;;;;25.50;99.90;;;;;;5010332;28;19932;-73
2022/06/25 10:06:42;;;;;;;;;;;25.60;99.90;;;;;;5028152;28;19920;-73
2022/06/25 10:09:09;;;;;;;;;;;25.70;99.90;;;;;;5026351;28;19972;-73
2022/06/25 10:11:37;;;;;;;;;;;25.80;99.90;;;;;;5020294;28;20457;-74
2022/06/25 10:14:03;;;;;;;;;;;25.90;98.30;;;;;;5015668;28;19923;-74
2022/06/25 10:16:29;;;;;;;;;;;25.70;98.50;;;;;;5019279;28;20011;-74
2022/06/25 10:18:55;;;;;;;;;;;25.80;95.10;;;;;;5018061;28;19918;-73
2022/06/25 10:21:21;;;;;;;;;;;26.10;95.30;;;;;;5026611;28;19964;-73
2022/06/25 10:23:49;;;;;;;;;;;26.10;96.10;;;;;;5018438;28;19923;-74
2022/06/25 10:26:15;;;;;;;;;;;26.10;96.30;;;;;;5025202;28;20364;-73
2022/06/25 10:28:41;;;;;;;;;;;26.00;97.30;;;;;;5024919;28;19917;-73
2022/06/25 10:31:10;;;;;;;;;;;26.10;98.00;;;;;;5020740;28;20456;-73
2022/06/25 10:33:54;;;;;;;;;;;26.20;97.80;;;;;;5020422;28;19913;-73
2022/06/25 10:36:38;;;;;;;;;;;26.20;96.30;;;;;;5024005;28;19917;-73
2022/06/25 10:39:22;;;;;;;;;;;26.10;96.70;;;;;;5025361;28;19979;-73
2022/06/25 10:44:50;;;;;;;;;;;26.20;97.70;;;;;;5022144;28;19959;-75
2022/06/25 10:47:16;;;;;;;;;;;26.20;98.70;;;;;;5020080;28;19921;-74
2022/06/25 10:49:41;;;;;;;;;;;26.20;97.50;;;;;;5022305;28;20000;-74
2022/06/25 10:52:07;;;;;;;;;;;26.30;98.80;;;;;;5019566;28;19921;-75
2022/06/25 10:54:36;;;;;;;;;;;26.40;97.10;;;;;;5015892;28;19918;-74
2022/06/25 10:57:02;;;;;;;;;;;26.40;97.80;;;;;;5026372;28;19917;-75
2022/06/25 10:59:46;;;;;;;;;;;26.40;94.40;;;;;;5022203;28;20267;-74
2022/06/25 11:02:16;;;;;;;;;;;26.50;92.80;;;;;;5027095;28;19920;-74
2022/06/25 11:04:48;;;;;;;;;;;26.50;92.90;;;;;;5026518;28;19913;-72
2022/06/25 11:07:17;;;;;;;;;;;26.50;94.20;;;;;;5029066;28;19912;-72
2022/06/25 11:09:56;;;;;;;;;;;26.40;94.10;;;;;;5024154;28;19979;-72
2022/06/25 11:12:23;;;;;;;;;;;26.40;94.90;;;;;;5025782;28;20302;-74
2022/06/25 11:14:49;;;;;;;;;;;26.40;95.00;;;;;;5019650;28;20379;-73
2022/06/25 11:17:15;;;;;;;;;;;26.50;95.50;;;;;;5025209;28;20441;-75
2022/06/25 11:19:42;;;;;;;;;;;26.40;95.30;;;;;;5024900;28;19917;-73
2022/06/25 11:22:07;;;;;;;;;;;26.40;94.40;;;;;;5033344;28;19913;-74
2022/06/25 11:24:33;;;;;;;;;;;26.40;95.10;;;;;;5031349;28;20301;-73
2022/06/25 11:29:46;;;;;;;;;;;26.40;95.20;;;;;;5034082;28;20024;-73
2022/06/25 11:32:21;;;;;;;;;;;26.50;94.90;;;;;;5023413;28;20298;-73
2022/06/25 11:34:54;;;;;;;;;;;26.50;95.70;;;;;;5021469;28;19992;-73
2022/06/25 11:37:20;;;;;;;;;;;26.50;95.50;;;;;;5017517;28;19913;-73
2022/06/25 11:39:46;;;;;;;;;;;26.50;95.30;;;;;;5029967;28;19920;-73
2022/06/25 11:42:12;;;;;;;;;;;26.60;94.40;;;;;;5033055;28;19921;-72
2022/06/25 11:44:39;;;;;;;;;;;26.60;94.00;;;;;;5031739;28;19921;-73
2022/06/25 11:47:05;;;;;;;;;;;26.60;93.90;;;;;;5028430;28;19997;-74
2022/06/25 11:49:40;;;;;;;;;;;26.40;94.90;;;;;;5022717;28;20012;-73
2022/06/25 11:52:06;;;;;;;;;;;26.50;94.70;;;;;;5032832;28;19924;-73
2022/06/25 11:54:36;;;;;;;;;;;26.50;94.80;;;;;;5026938;28;19913;-73
2022/06/25 11:57:03;;;;;;;;;;;26.50;94.50;;;;;;5033177;28;20259;-73
2022/06/25 11:59:29;;;;;;;;;;;26.50;94.00;;;;;;5026505;28;19945;-72
2022/06/25 12:01:55;;;;;;;;;;;26.50;95.30;;;;;;5026460;28;19917;-74
2022/06/25 12:04:21;;;;;;;;;;;26.50;95.00;;;;;;5032779;28;20390;-73
2022/06/25 12:06:47;;;;;;;;;;;26.40;95.20;;;;;;5017140;28;20371;-73
2022/06/25 12:09:16;;;;;;;;;;;26.50;95.30;;;;;;5033016;28;19925;-74
2022/06/25 12:11:51;;;;;;;;;;;26.50;94.60;;;;;;5033046;28;20454;-76
2022/06/25 12:14:34;;;;;;;;;;;26.60;94.90;;;;;;5032545;28;20538;-74
2022/06/25 12:17:00;;;;;;;;;;;26.60;93.80;;;;;;5031661;28;19960;-72
2022/06/25 12:19:42;;;;;;;;;;;26.60;94.70;;;;;;5017067;28;19960;-71
2022/06/25 12:22:17;;;;;;;;;;;26.60;93.50;;;;;;5031472;28;19917;-74
2022/06/25 12:24:45;;;;;;;;;;;26.60;93.30;;;;;;5030250;28;19913;-72
2022/06/25 12:27:10;;;;;;;;;;;26.70;94.30;;;;;;5033401;28;20389;-69
2022/06/25 12:29:36;;;;;;;;;;;26.70;94.30;;;;;;5031336;28;19918;-69
2022/06/25 12:32:02;;;;;;;;;;;26.60;95.00;;;;;;5027722;28;20398;-68
2022/06/25 12:34:27;;;;;;;;;;;26.70;95.50;;;;;;5029734;28;19913;-69
2022/06/25 12:36:54;;;;;;;;;;;26.60;95.30;;;;;;5022147;28;20004;-69
2022/06/25 12:39:26;;;;;;;;;;;26.60;95.40;;;;;;5030292;28;20283;-69
2022/06/25 12:41:53;;;;;;;;;;;26.60;94.50;;;;;;5031167;28;19928;-70
2022/06/25 12:44:19;;;;;;;;;;;26.60;94.40;;;;;;5029601;28;19932;-69
2022/06/25 12:47:03;;;;;;;;;;;26.70;94.20;;;;;;5022778;28;19917;-69
2022/06/25 12:49:47;;;;;;;;;;;26.70;94.80;;;;;;5019430;28;20286;-69
2022/06/25 12:52:14;;;;;;;;;;;26.60;94.90;;;;;;5021956;28;19964;-69
2022/06/25 12:54:44;;;;;;;;;;;26.60;94.30;;;;;;5026025;28;20318;-69
2022/06/25 12:57:09;;;;;;;;;;;26.60;94.80;;;;;;5030998;28;19936;-69
2022/06/25 12:59:41;;;;;;;;;;;26.90;94.20;;;;;;5030423;28;20374;-68
2022/06/25 13:02:07;;;;;;;;;;;26.90;94.20;;;;;;5023257;28;19913;-69
2022/06/25 13:04:32;;;;;;;;;;;27.00;93.20;;;;;;5016329;28;20294;-70
2022/06/25 13:06:58;;;;;;;;;;;27.00;92.70;;;;;;5024476;28;20272;-72
2022/06/25 13:09:24;;;;;;;;;;;26.90;93.30;;;;;;5031881;28;19924;-71
2022/06/25 13:11:49;;;;;;;;;;;26.80;93.80;;;;;;5024214;28;19917;-72
2022/06/25 13:14:15;;;;;;;;;;;26.70;94.70;;;;;;5030124;28;19943;-72
2022/06/25 13:16:41;;;;;;;;;;;26.50;94.50;;;;;;5031256;28;19914;-71
2022/06/25 13:19:07;;;;;;;;;;;26.50;95.00;;;;;;5016482;28;20379;-73
2022/06/25 13:21:32;;;;;;;;;;;26.40;95.70;;;;;;5032875;28;19999;-72
2022/06/25 13:23:58;;;;;;;;;;;26.50;95.70;;;;;;5030735;28;19914;-73
2022/06/25 13:26:23;;;;;;;;;;;26.60;95.70;;;;;;5031330;28;20421;-70
2022/06/25 13:28:49;;;;;;;;;;;26.70;96.00;;;;;;5030691;28;20348;-72
2022/06/25 13:31:14;;;;;;;;;;;26.60;95.90;;;;;;5015642;28;19968;-71
2022/06/25 13:33:40;;;;;;;;;;;26.60;95.80;;;;;;5018089;28;20386;-72
2022/06/25 13:36:05;;;;;;;;;;;26.50;96.20;;;;;;5024554;28;19921;-72
2022/06/25 13:38:31;;;;;;;;;;;26.30;96.40;;;;;;5020141;28;19913;-72
2022/06/25 13:40:57;;;;;;;;;;;26.40;97.20;;;;;;5019260;28;19921;-72
2022/06/25 13:43:22;;;;;;;;;;;26.50;97.20;;;;;;5016368;28;20375;-72
2022/06/25 13:45:48;;;;;;;;;;;26.50;96.70;;;;;;5031380;28;19920;-72
2022/06/25 13:48:13;;;;;;;;;;;26.70;96.00;;;;;;5031612;28;19913;-72
2022/06/25 13:50:39;;;;;;;;;;;26.70;95.70;;;;;;5025281;28;19936;-72
2022/06/25 13:53:04;;;;;;;;;;;26.80;95.90;;;;;;5029496;28;19913;-72
2022/06/25 13:55:33;;;;;;;;;;;26.80;95.70;;;;;;5016522;28;19913;-72
2022/06/25 13:57:59;;;;;;;;;;;26.60;95.50;;;;;;5023232;28;20201;-72
2022/06/25 14:00:25;;;;;;;;;;;26.80;94.40;;;;;;5026610;28;19920;-72
2022/06/25 14:02:50;;;;;;;;;;;26.80;95.10;;;;;;5025833;28;19913;-72
2022/06/25 14:05:16;;;;;;;;;;;26.80;95.10;;;;;;5024085;28;19913;-72
2022/06/25 14:07:41;;;;;;;;;;;26.80;95.80;;;;;;5015182;28;20712;-72
2022/06/25 14:10:07;;;;;;;;;;;26.90;95.60;;;;;;5024053;28;19929;-72
2022/06/25 14:12:33;;;;;;;;;;;26.90;96.10;;;;;;5027362;28;19920;-72
2022/06/25 14:14:59;;;;;;;;;;;26.90;95.60;;;;;;5026506;28;20433;-73
2022/06/25 14:17:25;;;;;;;;;;;26.90;95.40;;;;;;5028542;28;20055;-71
2022/06/25 14:19:52;;;;;;;;;;;26.90;93.70;;;;;;5020998;28;19920;-72
2022/06/25 14:22:17;;;;;;;;;;;27.00;95.00;;;;;;5012056;28;20298;-71
2022/06/25 14:27:27;;;;;;;;;;;27.10;95.30;;;;;;5026882;28;19921;-74
2022/06/25 14:29:53;;;;;;;;;;;27.10;95.60;;;;;;5019194;28;19926;-73
2022/06/25 14:32:18;;;;;;;;;;;27.10;95.90;;;;;;5025367;28;20298;-71
2022/06/25 14:34:44;;;;;;;;;;;27.10;95.60;;;;;;5026082;28;20398;-71
2022/06/25 14:42:38;;;;;;;;;;;26.70;95.40;;;;;;5015398;28;19933;-71
2022/06/25 14:45:05;;;;;;;;;;;26.60;96.60;;;;;;5028313;28;19921;-71
2022/06/25 14:47:30;;;;;;;;;;;26.50;97.20;;;;;;5026844;28;20310;-70
2022/06/25 14:49:56;;;;;;;;;;;26.60;96.90;;;;;;5022747;28;19929;-71